createdAt,value
2023-05-25T00:00:53.342Z,99.90
2023-05-25T00:03:33.931Z,99.90
2023-05-25T00:06:07.915Z,99.90
2023-05-25T00:08:41.594Z,99.90
2023-05-25T00:11:17.078Z,99.90
2023-05-25T00:13:52.670Z,99.90
2023-05-25T00:16:26.396Z,99.90
2023-05-25T00:19:03.844Z,99.90
2023-05-25T00:21:38.308Z,99.90
2023-05-25T00:24:12.001Z,99.90
2023-05-25T00:26:45.571Z,99.90
2023-05-25T00:29:21.511Z,99.90
2023-05-25T00:31:55.660Z,99.90
2023-05-25T00:34:29.228Z,99.90
2023-05-25T00:37:02.848Z,99.90
2023-05-25T00:39:36.391Z,99.90
2023-05-25T00:42:10.079Z,99.90
2023-05-25T00:44:45.519Z,99.90
2023-05-25T00:47:19.237Z,99.90
2023-05-25T00:49:52.875Z,99.90
2023-05-25T00:52:27.194Z,99.90
2023-05-25T00:55:03.649Z,99.90
2023-05-25T00:57:38.746Z,99.90
2023-05-25T01:00:15.463Z,99.90
2023-05-25T01:02:56.534Z,99.90
2023-05-25T01:05:32.448Z,99.90
2023-05-25T01:08:10.130Z,99.90
2023-05-25T01:10:44.553Z,99.90
2023-05-25T01:13:20.522Z,99.90
2023-05-25T01:15:55.883Z,99.90
2023-05-25T01:18:29.470Z,99.90
2023-05-25T01:21:15.140Z,99.90
2023-05-25T01:23:52.324Z,99.90
2023-05-25T01:26:30.942Z,99.90
2023-05-25T01:29:07.689Z,99.90
2023-05-25T01:31:42.654Z,99.90
2023-05-25T01:34:18.219Z,99.90
2023-05-25T01:36:53.530Z,99.90
2023-05-25T01:39:27.105Z,99.90
2023-05-25T01:42:01.872Z,99.90
2023-05-25T01:44:35.702Z,99.90
2023-05-25T01:47:17.960Z,99.90
2023-05-25T01:49:59.627Z,99.90
2023-05-25T01:52:39.785Z,99.90
2023-05-25T01:55:16.133Z,99.90
2023-05-25T01:57:57.969Z,99.90
2023-05-25T02:00:32.909Z,99.90
2023-05-25T02:03:07.330Z,99.90
2023-05-25T02:05:43.901Z,99.90
2023-05-25T02:08:19.050Z,99.90
2023-05-25T02:10:52.681Z,99.90
2023-05-25T02:13:26.474Z,99.90
2023-05-25T02:16:00.207Z,99.90
2023-05-25T02:18:34.438Z,99.90
2023-05-25T02:21:08.101Z,99.90
2023-05-25T02:23:43.144Z,99.90
2023-05-25T02:26:16.855Z,99.90
2023-05-25T02:28:50.497Z,99.90
2023-05-25T02:31:24.592Z,99.90
2023-05-25T02:33:58.329Z,99.90
2023-05-25T02:36:33.095Z,99.90
2023-05-25T02:39:09.024Z,99.90
2023-05-25T02:41:44.286Z,99.90
2023-05-25T02:44:17.853Z,99.90
2023-05-25T02:46:51.414Z,99.90
2023-05-25T02:49:25.065Z,99.90
2023-05-25T02:51:59.614Z,99.90
2023-05-25T02:54:34.559Z,99.90
2023-05-25T02:57:08.566Z,99.90
2023-05-25T02:59:42.199Z,99.90
2023-05-25T03:02:18.619Z,99.90
2023-05-25T03:04:53.888Z,99.90
2023-05-25T03:07:28.017Z,99.90
2023-05-25T03:10:03.786Z,99.90
2023-05-25T03:12:37.387Z,99.90
2023-05-25T03:15:13.265Z,99.90
2023-05-25T03:17:46.994Z,99.90
2023-05-25T03:20:21.591Z,99.90
2023-05-25T03:22:57.107Z,99.90
2023-05-25T03:25:32.393Z,99.90
2023-05-25T03:28:06.790Z,99.90
2023-05-25T03:30:40.383Z,99.90
2023-05-25T03:33:15.717Z,99.90
2023-05-25T03:35:53.192Z,99.90
2023-05-25T03:38:26.722Z,99.90
2023-05-25T03:41:01.753Z,99.90
2023-05-25T03:43:35.288Z,99.90
2023-05-25T03:46:11.688Z,99.90
2023-05-25T03:48:45.512Z,99.90
2023-05-25T03:51:19.123Z,99.90
2023-05-25T03:53:52.732Z,99.90
2023-05-25T03:56:27.695Z,99.90
2023-05-25T03:59:01.387Z,99.90
2023-05-25T04:01:38.246Z,99.90
2023-05-25T04:04:11.914Z,99.90
2023-05-25T04:06:45.971Z,99.90
2023-05-25T04:09:19.857Z,99.90
2023-05-25T04:11:54.816Z,99.90
2023-05-25T04:14:28.372Z,99.90
2023-05-25T04:17:02.603Z,99.90
2023-05-25T04:19:36.156Z,99.90
2023-05-25T04:22:09.922Z,99.90
2023-05-25T04:24:43.459Z,99.90
2023-05-25T04:27:20.376Z,99.90
2023-05-25T04:29:54.339Z,99.90
2023-05-25T04:32:49.587Z,99.90
2023-05-25T04:35:50.632Z,99.90
2023-05-25T04:38:25.116Z,99.90
2023-05-25T04:40:58.975Z,99.90
2023-05-25T04:43:34.508Z,99.90
2023-05-25T04:46:09.382Z,99.90
2023-05-25T04:48:43.834Z,99.90
2023-05-25T04:51:17.399Z,99.90
2023-05-25T04:53:51.292Z,99.90
2023-05-25T04:56:26.554Z,99.90
2023-05-25T04:59:01.520Z,99.90
2023-05-25T05:01:40.720Z,99.90
2023-05-25T05:04:16.508Z,99.90
2023-05-25T05:06:50.437Z,99.90
2023-05-25T05:09:29.574Z,99.90
2023-05-25T05:12:06.412Z,99.90
2023-05-25T05:14:47.981Z,99.90
2023-05-25T05:17:21.768Z,99.90
2023-05-25T05:19:56.597Z,99.90
2023-05-25T05:22:31.003Z,99.90
2023-05-25T05:25:04.749Z,99.90
2023-05-25T05:27:38.684Z,99.90
2023-05-25T05:30:22.346Z,99.90
2023-05-25T05:32:56.111Z,99.90
2023-05-25T05:35:33.388Z,99.90
2023-05-25T05:38:13.414Z,99.90
2023-05-25T05:40:46.990Z,99.90
2023-05-25T05:43:25.715Z,99.90
2023-05-25T05:46:01.314Z,99.90
2023-05-25T05:48:35.700Z,99.90
2023-05-25T05:51:09.534Z,99.90
2023-05-25T05:53:43.933Z,99.90
2023-05-25T05:56:20.811Z,99.90
2023-05-25T05:58:54.836Z,99.90
2023-05-25T06:01:29.810Z,99.90
2023-05-25T06:04:03.369Z,99.90
2023-05-25T06:06:38.654Z,99.90
2023-05-25T06:09:12.830Z,99.90
2023-05-25T06:11:46.947Z,99.90
2023-05-25T06:14:20.583Z,99.90
2023-05-25T06:16:55.665Z,99.90
2023-05-25T06:19:31.654Z,99.90
2023-05-25T06:22:05.329Z,99.90
2023-05-25T06:24:38.895Z,99.90
2023-05-25T06:27:13.544Z,99.90
2023-05-25T06:29:47.273Z,99.90
2023-05-25T06:32:22.602Z,99.90
2023-05-25T06:34:56.253Z,99.90
2023-05-25T06:37:35.265Z,99.90
2023-05-25T06:40:11.413Z,99.90
2023-05-25T06:42:45.244Z,99.90
2023-05-25T06:45:54.015Z,99.90
2023-05-25T06:48:29.094Z,99.90
2023-05-25T06:51:02.738Z,99.90
2023-05-25T06:53:36.537Z,99.90
2023-05-25T06:56:10.171Z,99.90
2023-05-25T06:58:43.718Z,99.90
2023-05-25T07:01:17.404Z,99.90
2023-05-25T07:03:52.379Z,99.90
2023-05-25T07:06:25.936Z,99.90
2023-05-25T07:08:59.572Z,99.90
2023-05-25T07:11:33.095Z,99.90
2023-05-25T07:14:06.761Z,99.90
2023-05-25T07:16:40.295Z,99.90
2023-05-25T07:19:15.300Z,99.90
2023-05-25T07:21:48.893Z,99.90
2023-05-25T07:24:22.423Z,99.90
2023-05-25T07:26:55.986Z,99.90
2023-05-25T07:29:29.654Z,99.90
2023-05-25T07:32:03.282Z,99.90
2023-05-25T07:34:38.409Z,99.90
2023-05-25T07:37:12.146Z,99.90
2023-05-25T07:39:45.799Z,99.90
2023-05-25T07:42:21.880Z,99.90
2023-05-25T07:44:55.583Z,99.90
2023-05-25T07:47:29.537Z,99.90
2023-05-25T07:50:04.759Z,99.90
2023-05-25T07:52:39.422Z,99.90
2023-05-25T07:55:13.126Z,99.90
2023-05-25T07:57:46.785Z,99.90
2023-05-25T08:00:21.368Z,99.90
2023-05-25T08:02:55.329Z,99.90
2023-05-25T08:05:30.600Z,99.90
2023-05-25T08:08:04.200Z,99.90
2023-05-25T08:10:37.824Z,99.90
2023-05-25T08:13:11.399Z,99.90
2023-05-25T08:15:45.082Z,99.90
2023-05-25T08:18:19.492Z,99.90
2023-05-25T08:20:54.455Z,99.90
2023-05-25T08:23:28.027Z,99.90
2023-05-25T08:26:05.938Z,99.90
2023-05-25T08:28:45.291Z,99.90
2023-05-25T08:31:18.931Z,99.90
2023-05-25T08:33:52.532Z,99.90
2023-05-25T08:36:28.101Z,99.90
2023-05-25T08:39:01.866Z,99.90
2023-05-25T08:41:37.359Z,99.90
2023-05-25T08:44:11.090Z,99.90
2023-05-25T08:46:47.845Z,99.90
2023-05-25T08:49:23.609Z,99.90
2023-05-25T08:51:58.808Z,99.90
2023-05-25T08:54:36.129Z,99.90
2023-05-25T08:57:18.434Z,99.90
2023-05-25T08:59:58.176Z,99.90
2023-05-25T09:02:37.152Z,99.90
2023-05-25T09:05:11.159Z,99.90
2023-05-25T09:07:46.721Z,99.90
2023-05-25T09:10:20.651Z,99.90
2023-05-25T09:12:55.196Z,99.90
2023-05-25T09:15:28.874Z,99.90
2023-05-25T09:18:02.514Z,99.90
2023-05-25T09:20:36.233Z,99.90
2023-05-25T09:23:11.515Z,99.90
2023-05-25T09:25:46.056Z,99.90
2023-05-25T09:30:57.985Z,99.90
2023-05-25T09:33:31.963Z,99.90
2023-05-25T09:36:06.906Z,99.90
2023-05-25T09:38:42.252Z,99.90
2023-05-25T09:41:16.466Z,99.90
2023-05-25T09:46:29.890Z,99.90
2023-05-25T09:49:04.130Z,99.90
2023-05-25T09:51:37.845Z,99.90
2023-05-25T09:54:13.179Z,99.90
2023-05-25T09:56:46.940Z,99.90
2023-05-25T09:59:20.531Z,99.90
2023-05-25T10:01:54.555Z,99.90
2023-05-25T10:04:28.266Z,99.90
2023-05-25T10:07:02.814Z,99.90
2023-05-25T10:09:41.729Z,99.90
2023-05-25T10:12:20.319Z,99.90
2023-05-25T10:14:54.747Z,99.90
2023-05-25T10:17:32.730Z,99.90
2023-05-25T10:20:10.227Z,99.90
2023-05-25T10:22:49.548Z,99.90
2023-05-25T10:25:28.796Z,99.90
2023-05-25T10:28:06.809Z,99.90
2023-05-25T10:30:42.390Z,99.90
2023-05-25T10:33:16.089Z,99.90
2023-05-25T10:36:08.567Z,99.90
2023-05-25T10:38:44.863Z,99.90
2023-05-25T10:41:21.588Z,99.90
2023-05-25T10:43:55.570Z,99.90
2023-05-25T10:46:30.399Z,99.90
2023-05-25T10:49:04.116Z,99.90
2023-05-25T10:51:43.892Z,99.90
2023-05-25T10:54:18.975Z,99.90
2023-05-25T10:57:14.430Z,99.90
2023-05-25T10:59:51.652Z,98.70
2023-05-25T11:02:25.453Z,99.20
2023-05-25T11:05:39.707Z,99.90
2023-05-25T11:08:14.887Z,99.90
2023-05-25T11:10:54.695Z,99.90
2023-05-25T11:13:40.393Z,99.90
2023-05-25T11:16:22.205Z,99.90
2023-05-25T11:18:58.667Z,99.90
2023-05-25T11:21:45.921Z,99.90
2023-05-25T11:24:19.581Z,97.70
2023-05-25T11:26:58.223Z,99.90
2023-05-25T11:29:37.359Z,97.90
2023-05-25T11:32:15.492Z,95.50
2023-05-25T11:34:49.824Z,95.30
2023-05-25T11:37:25.636Z,97.20
2023-05-25T11:39:59.219Z,94.80
2023-05-25T11:42:33.910Z,95.00
2023-05-25T11:45:12.771Z,96.60
2023-05-25T11:47:46.330Z,95.60
2023-05-25T11:50:19.916Z,95.00
2023-05-25T11:52:54.109Z,95.40
2023-05-25T11:55:27.664Z,95.00
2023-05-25T11:58:01.203Z,93.50
2023-05-25T12:00:36.268Z,93.30
2023-05-25T12:03:10.676Z,91.80
2023-05-25T12:05:44.688Z,90.90
2023-05-25T12:08:32.629Z,90.30
2023-05-25T12:11:06.764Z,90.90
2023-05-25T12:13:42.566Z,88.20
2023-05-25T12:16:18.041Z,85.80
2023-05-25T12:18:52.177Z,85.80
2023-05-25T12:21:26.514Z,84.20
2023-05-25T12:24:01.509Z,86.40
2023-05-25T12:26:35.104Z,83.10
2023-05-25T12:29:10.289Z,81.20
2023-05-25T12:31:45.458Z,84.40
2023-05-25T12:34:20.428Z,85.30
2023-05-25T12:36:55.359Z,84.90
2023-05-25T12:39:39.054Z,84.30
2023-05-25T12:42:15.769Z,82.70
2023-05-25T12:44:55.331Z,82.00
2023-05-25T12:47:32.404Z,83.00
2023-05-25T12:50:13.964Z,84.20
2023-05-25T12:52:49.316Z,81.00
2023-05-25T12:55:27.305Z,79.40
2023-05-25T12:58:04.786Z,79.10
2023-05-25T13:00:40.169Z,81.80
2023-05-25T13:03:15.219Z,81.70
2023-05-25T13:05:48.893Z,83.20
2023-05-25T13:08:22.597Z,85.20
2023-05-25T13:10:57.989Z,81.70
2023-05-25T13:13:31.600Z,81.40
2023-05-25T13:16:05.538Z,80.60
2023-05-25T13:18:40.543Z,83.90
2023-05-25T13:21:14.445Z,85.00
2023-05-25T13:23:48.302Z,87.00
2023-05-25T13:26:21.964Z,89.20
2023-05-25T13:28:55.620Z,87.60
2023-05-25T13:31:29.155Z,88.30
2023-05-25T13:34:04.497Z,83.90
2023-05-25T13:36:38.058Z,85.10
2023-05-25T13:39:13.784Z,86.70
2023-05-25T13:41:48.196Z,88.70
2023-05-25T13:44:21.808Z,87.30
2023-05-25T13:46:55.457Z,87.00
2023-05-25T13:49:30.495Z,87.30
2023-05-25T13:52:04.032Z,85.00
2023-05-25T13:54:37.790Z,85.40
2023-05-25T13:57:11.491Z,86.00
2023-05-25T13:59:45.119Z,84.40
2023-05-25T14:02:19.072Z,83.90
2023-05-25T14:04:54.148Z,85.50
2023-05-25T14:07:27.762Z,85.90
2023-05-25T14:10:01.553Z,86.40
2023-05-25T14:12:35.089Z,85.00
2023-05-25T14:15:10.139Z,86.30
2023-05-25T14:17:43.849Z,83.60
2023-05-25T14:20:25.345Z,86.70
2023-05-25T14:22:59.165Z,87.20
2023-05-25T14:25:32.725Z,88.20
2023-05-25T14:28:06.458Z,87.30
2023-05-25T14:30:40.181Z,89.30
2023-05-25T14:33:15.810Z,87.60
2023-05-25T14:35:51.010Z,87.40
2023-05-25T14:38:24.534Z,87.10
2023-05-25T14:40:58.068Z,88.20
2023-05-25T14:43:31.944Z,89.40
2023-05-25T14:46:06.609Z,89.50
2023-05-25T14:48:40.179Z,90.10
2023-05-25T14:51:15.139Z,90.00
2023-05-25T14:53:48.828Z,90.80
2023-05-25T14:56:23.144Z,91.20
2023-05-25T14:58:56.674Z,90.40
2023-05-25T15:01:30.354Z,90.50
2023-05-25T15:04:04.328Z,90.70
2023-05-25T15:06:40.124Z,92.10
2023-05-25T15:09:15.921Z,91.20
2023-05-25T15:11:49.513Z,91.90
2023-05-25T15:14:23.303Z,91.80
2023-05-25T15:16:57.237Z,91.10
2023-05-25T15:19:30.833Z,91.30
2023-05-25T15:22:06.040Z,92.20
2023-05-25T15:24:39.746Z,91.80
2023-05-25T15:27:13.545Z,92.50
2023-05-25T15:29:47.222Z,91.10
2023-05-25T15:32:20.852Z,91.70
2023-05-25T15:34:54.463Z,92.30
2023-05-25T15:37:31.004Z,93.00
2023-05-25T15:40:05.373Z,93.90
2023-05-25T15:42:38.963Z,94.70
2023-05-25T15:45:13.533Z,95.00
2023-05-25T15:47:47.323Z,95.90
2023-05-25T15:50:21.094Z,97.00
2023-05-25T15:52:56.089Z,98.30
2023-05-25T15:55:29.620Z,99.70
2023-05-25T15:58:03.128Z,99.90
2023-05-25T16:00:36.655Z,99.90
2023-05-25T16:03:10.232Z,99.90
2023-05-25T16:05:44.017Z,99.90
2023-05-25T16:08:19.199Z,99.90
2023-05-25T16:10:52.746Z,99.90
2023-05-25T16:13:26.299Z,99.90
2023-05-25T16:15:59.887Z,99.90
2023-05-25T16:18:33.501Z,99.90
2023-05-25T16:21:07.393Z,99.90
2023-05-25T16:23:42.484Z,99.90
2023-05-25T16:26:16.359Z,99.90
2023-05-25T16:28:49.916Z,99.90
2023-05-25T16:31:23.589Z,99.90
2023-05-25T16:33:57.213Z,99.90
2023-05-25T16:36:30.741Z,99.90
2023-05-25T16:39:05.953Z,99.90
2023-05-25T16:41:41.130Z,99.90
2023-05-25T16:44:15.585Z,99.90
2023-05-25T16:46:49.251Z,99.90
2023-05-25T16:49:22.960Z,99.90
2023-05-25T16:51:56.612Z,99.90
2023-05-25T16:54:31.588Z,99.90
2023-05-25T16:57:07.166Z,99.90
2023-05-25T16:59:41.046Z,99.90
2023-05-25T17:02:14.593Z,99.90
2023-05-25T17:04:48.551Z,99.90
2023-05-25T17:07:22.358Z,99.90
2023-05-25T17:09:57.427Z,99.90
2023-05-25T17:12:31.010Z,99.90
2023-05-25T17:15:05.232Z,99.90
2023-05-25T17:17:39.392Z,99.90
2023-05-25T17:20:13.219Z,99.90
2023-05-25T17:22:47.092Z,99.90
2023-05-25T17:25:22.234Z,99.90
2023-05-25T17:27:55.890Z,99.90
2023-05-25T17:30:29.488Z,99.90
2023-05-25T17:33:03.168Z,99.90
2023-05-25T17:35:36.722Z,99.90
2023-05-25T17:38:10.282Z,99.90
2023-05-25T17:40:45.399Z,99.90
2023-05-25T17:43:19.101Z,99.90
2023-05-25T17:45:52.938Z,99.90
2023-05-25T17:48:26.683Z,99.90
2023-05-25T17:51:00.194Z,99.90
2023-05-25T17:53:33.764Z,99.90
2023-05-25T17:56:09.583Z,99.90
2023-05-25T17:58:47.323Z,99.90
2023-05-25T18:01:21.448Z,99.90
2023-05-25T18:03:55.316Z,99.90
2023-05-25T18:06:29.424Z,99.90
2023-05-25T18:09:03.927Z,99.90
2023-05-25T18:11:38.979Z,99.90
2023-05-25T18:14:12.734Z,99.90
2023-05-25T18:16:46.567Z,99.90
2023-05-25T18:19:20.605Z,99.90
2023-05-25T18:21:54.234Z,99.90
2023-05-25T18:24:28.032Z,99.90
2023-05-25T18:27:04.814Z,99.90
2023-05-25T18:29:38.477Z,99.90
2023-05-25T18:32:12.195Z,99.90
2023-05-25T18:34:46.197Z,99.90
2023-05-25T18:37:21.828Z,99.90
2023-05-25T18:39:55.485Z,99.90
2023-05-25T18:42:30.574Z,99.90
2023-05-25T18:45:04.317Z,99.90
2023-05-25T18:47:38.155Z,99.90
2023-05-25T18:50:17.552Z,99.90
2023-05-25T18:52:51.615Z,99.90
2023-05-25T18:55:25.341Z,99.90
2023-05-25T18:58:01.696Z,99.90
2023-05-25T19:00:35.676Z,99.90
2023-05-25T19:03:09.405Z,99.90
2023-05-25T19:05:43.201Z,99.90
2023-05-25T19:08:17.119Z,99.90
2023-05-25T19:10:50.718Z,99.90
2023-05-25T19:13:25.756Z,99.90
2023-05-25T19:15:59.630Z,99.90
2023-05-25T19:18:33.256Z,99.90
2023-05-25T19:21:07.553Z,99.90
2023-05-25T19:23:41.682Z,99.90
2023-05-25T19:26:15.444Z,99.90
2023-05-25T19:28:50.586Z,99.90
2023-05-25T19:31:24.288Z,99.90
2023-05-25T19:33:58.009Z,99.90
2023-05-25T19:36:32.748Z,99.90
2023-05-25T19:39:06.653Z,99.90
2023-05-25T19:41:41.702Z,99.90
2023-05-25T19:44:16.832Z,99.90
2023-05-25T19:46:50.733Z,99.90
2023-05-25T19:49:24.479Z,99.90
2023-05-25T19:51:58.431Z,99.90
2023-05-25T19:54:32.105Z,99.90
2023-05-25T19:57:06.827Z,99.90
2023-05-25T19:59:42.057Z,99.90
2023-05-25T20:02:15.777Z,99.90
2023-05-25T20:04:49.519Z,99.90
2023-05-25T20:07:23.921Z,99.90
2023-05-25T20:09:57.572Z,99.90
2023-05-25T20:12:31.296Z,99.90
2023-05-25T20:15:06.718Z,99.90
2023-05-25T20:17:40.525Z,99.90
2023-05-25T20:20:14.637Z,99.90
2023-05-25T20:22:48.322Z,99.90
2023-05-25T20:25:22.092Z,99.90
2023-05-25T20:27:55.770Z,99.90
2023-05-25T20:30:30.815Z,99.90
2023-05-25T20:33:04.603Z,99.90
2023-05-25T20:35:38.708Z,99.90
2023-05-25T20:38:12.336Z,99.90
2023-05-25T20:40:46.156Z,99.90
2023-05-25T20:43:19.768Z,99.90
2023-05-25T20:45:54.780Z,99.90
2023-05-25T20:48:31.387Z,99.90
2023-05-25T20:51:05.008Z,99.90
2023-05-25T20:53:38.592Z,99.90
2023-05-25T20:56:12.453Z,99.90
2023-05-25T20:58:46.144Z,99.90
2023-05-25T21:01:21.327Z,99.90
2023-05-25T21:03:55.096Z,99.90
2023-05-25T21:06:28.782Z,99.90
2023-05-25T21:09:02.389Z,99.90
2023-05-25T21:11:36.118Z,99.90
2023-05-25T21:14:09.654Z,99.90
2023-05-25T21:16:45.875Z,99.90
2023-05-25T21:19:19.465Z,99.90
2023-05-25T21:21:53.193Z,99.90
2023-05-25T21:24:26.718Z,99.90
2023-05-25T21:27:00.231Z,99.90
2023-05-25T21:29:33.766Z,99.90
2023-05-25T21:32:08.888Z,99.90
2023-05-25T21:34:42.468Z,99.90
2023-05-25T21:37:16.151Z,99.90
2023-05-25T21:39:49.728Z,99.90
2023-05-25T21:42:23.292Z,99.90
2023-05-25T21:44:56.848Z,99.90
2023-05-25T21:47:31.891Z,99.90
2023-05-25T21:50:06.284Z,99.90
2023-05-25T21:52:39.808Z,99.90
2023-05-25T21:55:13.465Z,99.90
2023-05-25T21:57:46.952Z,99.90
2023-05-25T22:00:20.688Z,99.90
2023-05-25T22:02:55.696Z,99.90
2023-05-25T22:05:34.124Z,99.90
2023-05-25T22:08:08.838Z,99.90
2023-05-25T22:10:42.412Z,99.90
2023-05-25T22:13:15.951Z,99.90
2023-05-25T22:15:49.504Z,99.90
2023-05-25T22:18:24.435Z,99.90
2023-05-25T22:20:58.162Z,99.90
2023-05-25T22:23:31.755Z,99.90
2023-05-25T22:26:05.812Z,99.90
2023-05-25T22:28:39.421Z,99.90
2023-05-25T22:31:13.133Z,99.90
2023-05-25T22:33:48.153Z,99.90
2023-05-25T22:36:21.735Z,99.90
2023-05-25T22:38:55.269Z,99.90
2023-05-25T22:41:28.866Z,99.90
2023-05-25T22:44:02.386Z,99.90
2023-05-25T22:46:35.995Z,99.90
2023-05-25T22:49:10.995Z,99.90
2023-05-25T22:51:44.565Z,99.90
2023-05-25T22:54:19.371Z,99.90
2023-05-25T22:56:52.902Z,99.90
2023-05-25T22:59:26.559Z,99.90
2023-05-25T23:02:00.202Z,99.90
2023-05-25T23:04:36.534Z,99.90
2023-05-25T23:07:10.117Z,99.90
2023-05-25T23:09:43.671Z,99.90
2023-05-25T23:12:17.200Z,99.90
2023-05-25T23:14:51.890Z,99.90
2023-05-25T23:17:25.506Z,99.90
2023-05-25T23:20:01.989Z,99.90
2023-05-25T23:22:35.570Z,99.90
2023-05-25T23:25:10.373Z,99.90
2023-05-25T23:27:43.899Z,99.90
2023-05-25T23:30:18.308Z,99.90
2023-05-25T23:32:51.907Z,99.90
2023-05-25T23:35:26.924Z,99.90
2023-05-25T23:38:01.853Z,99.90
2023-05-25T23:40:35.376Z,99.90
2023-05-25T23:43:08.906Z,99.90
2023-05-25T23:45:42.557Z,99.90
2023-05-25T23:48:16.596Z,99.90
2023-05-25T23:50:51.541Z,99.90
2023-05-25T23:53:25.076Z,99.90
2023-05-25T23:55:58.619Z,99.90
2023-05-25T23:58:32.178Z,99.90
